5NYEM KDAL-KOPF
Flight info
| Callsign | 5NYEM |
|---|---|
| Flight time | N/A |
| Altitude | 45000 |
| Route | LNDRE5 ZALEA AEX LEV Y290 GAWKS CUURT1 |
| Aircraft | C750/M-SBDE3FGHRWXY/S |
Departure
| Time | N/A |
|---|---|
| Airport | Dallas Love Field (KDAL) |
Arrival
| Time | 2026-05-05 20:46 |
|---|---|
| Airport | Miami-Opa Locka Executive Airport (KOPF) |
| Time | Latitude | Longitude | Altitude | Speed | Heading |
|---|---|---|---|---|---|
| 2026-05-05 19:56 | 27.93758 | -86.51386 | 45030 ft | 568 kts | 106° |
| 2026-05-05 19:56 | 27.92540 | -86.47144 | 45027 ft | 567 kts | 106° |
| 2026-05-05 19:57 | 27.90079 | -86.38724 | 45033 ft | 567 kts | 106° |
| 2026-05-05 19:57 | 27.87610 | -86.30261 | 45036 ft | 567 kts | 106° |
| 2026-05-05 19:58 | 27.85134 | -86.21806 | 45039 ft | 567 kts | 106° |
| 2026-05-05 19:58 | 27.82655 | -86.13365 | 45038 ft | 566 kts | 106° |
| 2026-05-05 19:59 | 27.80173 | -86.04926 | 45028 ft | 566 kts | 106° |
| 2026-05-05 19:59 | 27.77687 | -85.96503 | 45033 ft | 565 kts | 106° |
| 2026-05-05 20:00 | 27.75199 | -85.88088 | 45049 ft | 565 kts | 106° |
| 2026-05-05 20:00 | 27.72702 | -85.79669 | 45049 ft | 565 kts | 106° |
| 2026-05-05 20:01 | 27.70204 | -85.71266 | 45049 ft | 565 kts | 106° |
| 2026-05-05 20:01 | 27.67700 | -85.62865 | 45049 ft | 565 kts | 106° |
| 2026-05-05 20:02 | 27.65194 | -85.54475 | 45046 ft | 565 kts | 107° |
| 2026-05-05 20:02 | 27.62679 | -85.46078 | 45052 ft | 565 kts | 107° |
| 2026-05-05 20:03 | 27.60160 | -85.37686 | 45052 ft | 565 kts | 107° |
| 2026-05-05 20:03 | 27.58196 | -85.29157 | 45046 ft | 561 kts | 97° |
| 2026-05-05 20:04 | 27.56818 | -85.20507 | 45055 ft | 562 kts | 98° |
| 2026-05-05 20:04 | 27.55224 | -85.11876 | 45060 ft | 562 kts | 98° |
| 2026-05-05 20:05 | 27.53767 | -85.03213 | 45057 ft | 563 kts | 97° |
| 2026-05-05 20:05 | 27.52219 | -84.94628 | 45048 ft | 562 kts | 98° |
| 2026-05-05 20:06 | 27.50717 | -84.85989 | 45048 ft | 562 kts | 97° |
| 2026-05-05 20:06 | 27.49173 | -84.77340 | 45049 ft | 563 kts | 98° |
| 2026-05-05 20:07 | 27.47641 | -84.68697 | 45051 ft | 563 kts | 97° |
| 2026-05-05 20:07 | 27.46097 | -84.60054 | 45055 ft | 563 kts | 98° |
| 2026-05-05 20:08 | 27.44548 | -84.51412 | 45053 ft | 563 kts | 98° |
| 2026-05-05 20:08 | 27.42994 | -84.42765 | 45055 ft | 564 kts | 98° |
| 2026-05-05 20:09 | 27.41685 | -84.35521 | 45050 ft | 564 kts | 98° |
| 2026-05-05 20:09 | 27.40120 | -84.26870 | 45054 ft | 564 kts | 98° |
| 2026-05-05 20:10 | 27.38545 | -84.18208 | 45052 ft | 565 kts | 98° |
| 2026-05-05 20:10 | 27.36966 | -84.09553 | 45056 ft | 565 kts | 98° |
| 2026-05-05 20:11 | 27.35379 | -84.00888 | 45054 ft | 565 kts | 98° |
| 2026-05-05 20:11 | 27.33789 | -83.92233 | 45049 ft | 565 kts | 98° |
| 2026-05-05 20:12 | 27.32192 | -83.83577 | 45044 ft | 565 kts | 98° |
| 2026-05-05 20:12 | 27.30589 | -83.74918 | 45048 ft | 565 kts | 98° |
| 2026-05-05 20:13 | 27.28982 | -83.66265 | 45049 ft | 566 kts | 98° |
| 2026-05-05 20:13 | 27.27369 | -83.57617 | 45049 ft | 565 kts | 98° |
| 2026-05-05 20:14 | 27.25751 | -83.48968 | 45045 ft | 565 kts | 98° |
| 2026-05-05 20:14 | 27.24140 | -83.40388 | 45045 ft | 565 kts | 98° |
| 2026-05-05 20:15 | 27.22513 | -83.31760 | 45041 ft | 564 kts | 98° |
| 2026-05-05 20:15 | 27.20884 | -83.23143 | 45043 ft | 564 kts | 98° |
| 2026-05-05 20:16 | 27.19247 | -83.14518 | 45044 ft | 564 kts | 98° |
| 2026-05-05 20:16 | 27.16808 | -83.06113 | 45025 ft | 572 kts | 114° |
| 2026-05-05 20:17 | 27.12700 | -82.98451 | 45044 ft | 575 kts | 123° |
| 2026-05-05 20:17 | 27.08243 | -82.91014 | 44681 ft | 570 kts | 120° |
| 2026-05-05 20:17 | 27.06251 | -82.87162 | 43831 ft | 565 kts | 117° |
| 2026-05-05 20:18 | 27.04339 | -82.83423 | 43081 ft | 556 kts | 120° |
| 2026-05-05 20:18 | 27.02281 | -82.79784 | 42362 ft | 548 kts | 122° |
| 2026-05-05 20:18 | 27.00209 | -82.76239 | 41650 ft | 540 kts | 121° |
| 2026-05-05 20:18 | 26.98257 | -82.72681 | 40952 ft | 532 kts | 119° |
| 2026-05-05 20:19 | 26.96384 | -82.69141 | 40260 ft | 525 kts | 119° |
| 2026-05-05 20:19 | 26.94470 | -82.65662 | 39573 ft | 522 kts | 121° |
| 2026-05-05 20:19 | 26.92521 | -82.62238 | 38889 ft | 522 kts | 121° |
| 2026-05-05 20:19 | 26.90594 | -82.58790 | 38146 ft | 523 kts | 120° |
| 2026-05-05 20:20 | 26.88702 | -82.55313 | 37471 ft | 524 kts | 120° |
| 2026-05-05 20:20 | 26.86784 | -82.51822 | 36780 ft | 528 kts | 121° |
| 2026-05-05 20:20 | 26.84822 | -82.48323 | 36078 ft | 532 kts | 121° |
| 2026-05-05 20:20 | 26.82850 | -82.44805 | 35378 ft | 536 kts | 121° |
| 2026-05-05 20:21 | 26.80882 | -82.41245 | 34669 ft | 537 kts | 121° |
| 2026-05-05 20:21 | 26.78918 | -82.37691 | 33955 ft | 537 kts | 121° |
| 2026-05-05 20:21 | 26.76947 | -82.34159 | 33205 ft | 534 kts | 121° |
| 2026-05-05 20:21 | 26.74974 | -82.30639 | 32497 ft | 533 kts | 121° |
| 2026-05-05 20:22 | 26.73016 | -82.27123 | 31797 ft | 533 kts | 121° |
| 2026-05-05 20:22 | 26.71056 | -82.23598 | 31098 ft | 533 kts | 122° |
| 2026-05-05 20:22 | 26.69091 | -82.20082 | 30390 ft | 534 kts | 122° |
| 2026-05-05 20:22 | 26.67128 | -82.16580 | 29621 ft | 525 kts | 122° |
| 2026-05-05 20:23 | 26.65214 | -82.13158 | 28940 ft | 518 kts | 122° |
| 2026-05-05 20:23 | 26.63307 | -82.09747 | 28253 ft | 516 kts | 122° |
| 2026-05-05 20:23 | 26.61413 | -82.06366 | 27575 ft | 510 kts | 122° |
| 2026-05-05 20:23 | 26.59543 | -82.03034 | 26905 ft | 504 kts | 122° |
| 2026-05-05 20:24 | 26.57702 | -81.99754 | 26242 ft | 498 kts | 122° |
| 2026-05-05 20:24 | 26.55860 | -81.96472 | 25584 ft | 493 kts | 122° |
| 2026-05-05 20:24 | 26.54047 | -81.93246 | 24941 ft | 488 kts | 122° |
| 2026-05-05 20:24 | 26.52252 | -81.90055 | 24304 ft | 483 kts | 122° |
| 2026-05-05 20:25 | 26.50474 | -81.86896 | 23667 ft | 478 kts | 122° |
| 2026-05-05 20:25 | 26.48716 | -81.83774 | 23000 ft | 472 kts | 122° |
| 2026-05-05 20:25 | 26.47003 | -81.80734 | 22387 ft | 466 kts | 122° |
| 2026-05-05 20:25 | 26.45265 | -81.77653 | 21771 ft | 461 kts | 122° |
| 2026-05-05 20:26 | 26.43570 | -81.74648 | 21169 ft | 456 kts | 122° |
| 2026-05-05 20:26 | 26.41912 | -81.71713 | 20574 ft | 451 kts | 122° |
| 2026-05-05 20:26 | 26.40247 | -81.68766 | 19987 ft | 446 kts | 122° |
| 2026-05-05 20:26 | 26.38602 | -81.65856 | 19401 ft | 441 kts | 122° |
| 2026-05-05 20:27 | 26.37502 | -81.63911 | 19004 ft | 437 kts | 122° |
| 2026-05-05 20:27 | 26.35366 | -81.60138 | 18228 ft | 431 kts | 122° |
| 2026-05-05 20:27 | 26.33772 | -81.57324 | 17626 ft | 425 kts | 122° |
| 2026-05-05 20:27 | 26.32200 | -81.54551 | 17070 ft | 421 kts | 122° |
| 2026-05-05 20:28 | 26.30641 | -81.51801 | 16516 ft | 417 kts | 123° |
| 2026-05-05 20:28 | 26.29096 | -81.49079 | 15965 ft | 414 kts | 123° |
| 2026-05-05 20:28 | 26.27565 | -81.46383 | 15421 ft | 410 kts | 123° |
| 2026-05-05 20:28 | 26.26047 | -81.43712 | 14887 ft | 406 kts | 123° |
| 2026-05-05 20:29 | 26.24544 | -81.41067 | 14350 ft | 402 kts | 123° |
| 2026-05-05 20:29 | 26.23055 | -81.38451 | 13814 ft | 398 kts | 123° |
| 2026-05-05 20:29 | 26.21582 | -81.35863 | 13258 ft | 393 kts | 123° |
| 2026-05-05 20:29 | 26.20129 | -81.33310 | 12745 ft | 389 kts | 123° |
| 2026-05-05 20:30 | 26.19174 | -81.31634 | 12401 ft | 386 kts | 123° |
| 2026-05-05 20:30 | 26.17743 | -81.29123 | 11891 ft | 382 kts | 123° |
| 2026-05-05 20:30 | 26.16325 | -81.26637 | 11385 ft | 376 kts | 123° |
| 2026-05-05 20:30 | 26.14957 | -81.24239 | 10907 ft | 357 kts | 123° |
| 2026-05-05 20:31 | 26.13251 | -81.21250 | 10296 ft | 334 kts | 124° |
| 2026-05-05 20:31 | 26.12421 | -81.19798 | 10006 ft | 324 kts | 124° |
| 2026-05-05 20:31 | 26.11237 | -81.17726 | 9558 ft | 311 kts | 124° |
| 2026-05-05 20:31 | 26.10097 | -81.15734 | 9151 ft | 299 kts | 123° |
| 2026-05-05 20:32 | 26.08994 | -81.13807 | 8763 ft | 293 kts | 123° |
| 2026-05-05 20:32 | 26.07903 | -81.11902 | 8383 ft | 291 kts | 123° |
| 2026-05-05 20:32 | 26.06819 | -81.10007 | 8001 ft | 290 kts | 123° |
| 2026-05-05 20:32 | 26.05738 | -81.08118 | 7624 ft | 290 kts | 123° |
| 2026-05-05 20:33 | 26.04654 | -81.06227 | 7237 ft | 289 kts | 123° |
| 2026-05-05 20:33 | 26.03581 | -81.04355 | 6859 ft | 286 kts | 122° |
| 2026-05-05 20:33 | 26.02517 | -81.02500 | 6490 ft | 282 kts | 122° |
| 2026-05-05 20:33 | 26.01488 | -81.00706 | 6098 ft | 271 kts | 122° |
| 2026-05-05 20:34 | 26.00698 | -80.98864 | 5977 ft | 257 kts | 110° |
| 2026-05-05 20:34 | 26.00077 | -80.97032 | 5972 ft | 243 kts | 110° |
| 2026-05-05 20:34 | 25.99484 | -80.95340 | 5970 ft | 231 kts | 111° |
| 2026-05-05 20:34 | 25.98897 | -80.93671 | 5970 ft | 233 kts | 111° |
| 2026-05-05 20:35 | 25.98306 | -80.91972 | 5966 ft | 246 kts | 111° |
| 2026-05-05 20:35 | 25.97650 | -80.90082 | 6003 ft | 271 kts | 111° |
| 2026-05-05 20:35 | 25.96971 | -80.88137 | 5996 ft | 269 kts | 111° |
| 2026-05-05 20:35 | 25.96295 | -80.86200 | 5997 ft | 270 kts | 111° |
| 2026-05-05 20:36 | 25.95617 | -80.84255 | 5995 ft | 270 kts | 111° |
| 2026-05-05 20:36 | 25.94939 | -80.82310 | 5992 ft | 270 kts | 111° |
| 2026-05-05 20:36 | 25.94260 | -80.80366 | 5992 ft | 273 kts | 111° |
| 2026-05-05 20:36 | 25.93557 | -80.78348 | 5868 ft | 283 kts | 110° |
| 2026-05-05 20:37 | 25.93121 | -80.76250 | 5616 ft | 283 kts | 97° |
| 2026-05-05 20:37 | 25.92931 | -80.74088 | 5407 ft | 281 kts | 95° |
| 2026-05-05 20:37 | 25.92739 | -80.71933 | 5170 ft | 279 kts | 96° |
| 2026-05-05 20:37 | 25.92523 | -80.69906 | 4929 ft | 249 kts | 97° |
| 2026-05-05 20:38 | 25.92328 | -80.68089 | 4704 ft | 227 kts | 96° |
| 2026-05-05 20:38 | 25.92155 | -80.66390 | 4509 ft | 218 kts | 96° |
| 2026-05-05 20:38 | 25.91986 | -80.64721 | 4327 ft | 218 kts | 96° |
| 2026-05-05 20:38 | 25.91813 | -80.63040 | 4153 ft | 221 kts | 96° |
| 2026-05-05 20:39 | 25.91637 | -80.61328 | 3977 ft | 225 kts | 96° |
| 2026-05-05 20:39 | 25.91459 | -80.59588 | 3790 ft | 228 kts | 96° |
| 2026-05-05 20:39 | 25.91278 | -80.57837 | 3587 ft | 228 kts | 96° |
| 2026-05-05 20:39 | 25.91361 | -80.56095 | 3292 ft | 228 kts | 71° |
| 2026-05-05 20:40 | 25.92209 | -80.54648 | 3113 ft | 221 kts | 50° |
| 2026-05-05 20:40 | 25.93196 | -80.53342 | 2981 ft | 221 kts | 50° |
| 2026-05-05 20:40 | 25.94177 | -80.52017 | 2796 ft | 222 kts | 50° |
| 2026-05-05 20:40 | 25.94823 | -80.51129 | 2679 ft | 222 kts | 51° |
| 2026-05-05 20:41 | 25.96122 | -80.49349 | 2407 ft | 216 kts | 51° |
| 2026-05-05 20:41 | 25.97032 | -80.48105 | 2215 ft | 200 kts | 51° |
| 2026-05-05 20:41 | 25.97896 | -80.46925 | 2036 ft | 193 kts | 51° |
| 2026-05-05 20:41 | 25.98729 | -80.45775 | 1856 ft | 189 kts | 52° |
| 2026-05-05 20:42 | 25.99186 | -80.44440 | 1594 ft | 186 kts | 84° |
| 2026-05-05 20:42 | 25.98951 | -80.43114 | 1622 ft | 169 kts | 114° |
| 2026-05-05 20:42 | 25.98382 | -80.42031 | 1698 ft | 157 kts | 118° |
| 2026-05-05 20:42 | 25.97820 | -80.40983 | 1696 ft | 159 kts | 118° |
| 2026-05-05 20:43 | 25.97227 | -80.39918 | 1715 ft | 164 kts | 118° |
| 2026-05-05 20:43 | 25.96613 | -80.38817 | 1706 ft | 171 kts | 118° |
| 2026-05-05 20:43 | 25.95986 | -80.37691 | 1714 ft | 172 kts | 118° |
| 2026-05-05 20:43 | 25.95370 | -80.36596 | 1615 ft | 168 kts | 119° |
| 2026-05-05 20:44 | 25.94753 | -80.35488 | 1390 ft | 162 kts | 120° |
| 2026-05-05 20:44 | 25.94199 | -80.34500 | 1197 ft | 141 kts | 120° |
| 2026-05-05 20:44 | 25.93720 | -80.33638 | 1013 ft | 122 kts | 118° |
| 2026-05-05 20:44 | 25.93435 | -80.33126 | 917 ft | 115 kts | 118° |
| 2026-05-05 20:45 | 25.92429 | -80.31320 | 597 ft | 123 kts | 118° |
| 2026-05-05 20:45 | 25.91981 | -80.30518 | 436 ft | 121 kts | 117° |
| 2026-05-05 20:45 | 25.91539 | -80.29725 | 255 ft | 121 kts | 117° |
| 2026-05-05 20:46 | 25.91096 | -80.28933 | 64 ft | 119 kts | 119° |
| 2026-05-05 20:46 | 25.90678 | -80.28191 | 17 ft | 103 kts | 121° |
| 2026-05-05 20:46 | 25.90417 | -80.27731 | 14 ft | 42 kts | 122° |
| 2026-05-05 20:46 | 25.90291 | -80.27505 | 12 ft | 23 kts | 118° |
| 2026-05-05 20:47 | 25.90304 | -80.27398 | 12 ft | 12 kts | 76° |
| 2026-05-05 20:47 | 25.90311 | -80.27331 | 12 ft | 7 kts | 92° |
| 2026-05-05 20:47 | 25.90299 | -80.27289 | 12 ft | 5 kts | 124° |
| 2026-05-05 20:47 | 25.90281 | -80.27259 | 12 ft | 5 kts | 124° |
| 2026-05-05 20:48 | 25.90266 | -80.27232 | 12 ft | 5 kts | 121° |
| 2026-05-05 20:48 | 25.90240 | -80.27185 | 12 ft | 9 kts | 122° |
| 2026-05-05 20:48 | 25.90199 | -80.27111 | 12 ft | 13 kts | 121° |
| 2026-05-05 20:48 | 25.90218 | -80.27036 | 12 ft | 12 kts | 38° |
| 2026-05-05 20:49 | 25.90278 | -80.26990 | 12 ft | 8 kts | 15° |
| 2026-05-05 20:49 | 25.90306 | -80.26957 | 12 ft | 5 kts | 88° |
| 2026-05-05 20:49 | 25.90300 | -80.26924 | 12 ft | 3 kts | 131° |
| 2026-05-05 20:49 | 25.90280 | -80.26916 | 12 ft | 3 kts | 179° |
| 2026-05-05 20:50 | 25.90276 | -80.26920 | 12 ft | 1 kts | 226° |
| 2026-05-05 20:50 | 25.90263 | -80.26930 | 12 ft | 3 kts | 200° |
| 2026-05-05 20:50 | 25.90242 | -80.26931 | 12 ft | 0 kts | 182° |